createdAt,value
2019-03-06T00:01:20.623Z,3.60
2019-03-06T00:03:49.599Z,3.53
2019-03-06T00:06:18.592Z,3.30
2019-03-06T00:08:47.571Z,2.73
2019-03-06T00:11:16.831Z,3.60
2019-03-06T00:13:45.817Z,6.17
2019-03-06T00:16:14.724Z,5.00
2019-03-06T00:18:43.725Z,2.83
2019-03-06T00:21:12.693Z,2.90
2019-03-06T00:23:41.877Z,2.40
2019-03-06T00:26:10.858Z,3.83
2019-03-06T00:28:39.691Z,3.00
2019-03-06T00:31:08.661Z,2.37
2019-03-06T00:33:37.651Z,4.10
2019-03-06T00:36:10.997Z,3.60
2019-03-06T00:38:39.898Z,7.90
2019-03-06T00:41:22.769Z,2.67
2019-03-06T00:43:51.667Z,3.60
2019-03-06T00:46:20.667Z,4.27
2019-03-06T00:48:49.484Z,2.83
2019-03-06T00:51:18.409Z,2.40
2019-03-06T00:53:47.313Z,2.23
2019-03-06T00:56:16.218Z,2.10
2019-03-06T00:58:45.130Z,3.60
2019-03-06T01:01:14.500Z,3.30
2019-03-06T01:03:43.427Z,2.93
2019-03-06T01:06:12.350Z,3.30
2019-03-06T01:08:41.251Z,2.57
2019-03-06T01:11:10.220Z,1.97
2019-03-06T01:13:40.291Z,3.60
2019-03-06T01:16:09.276Z,2.20
2019-03-06T01:18:38.282Z,2.87
2019-03-06T01:21:07.187Z,2.50
2019-03-06T01:23:36.196Z,3.00
2019-03-06T01:26:05.272Z,4.43
2019-03-06T01:28:34.187Z,3.20
2019-03-06T01:31:03.268Z,2.07
2019-03-06T01:33:54.401Z,3.20
2019-03-06T01:36:30.357Z,3.23
2019-03-06T01:39:16.861Z,3.17
2019-03-06T01:42:03.318Z,4.77
2019-03-06T01:44:36.740Z,2.53
2019-03-06T01:47:05.878Z,4.40
2019-03-06T01:49:34.704Z,2.20
2019-03-06T01:52:03.708Z,2.00
2019-03-06T01:54:32.593Z,2.13
2019-03-06T01:57:01.505Z,2.93
2019-03-06T01:59:30.676Z,3.23
2019-03-06T02:01:59.666Z,2.87
2019-03-06T02:04:28.554Z,5.63
2019-03-06T02:06:57.522Z,3.60
2019-03-06T02:09:28.593Z,1.97
2019-03-06T02:11:57.768Z,3.03
2019-03-06T02:14:26.761Z,3.80
2019-03-06T02:16:55.733Z,3.23
2019-03-06T02:19:24.653Z,3.77
2019-03-06T02:21:53.477Z,2.10
2019-03-06T02:24:22.618Z,2.10
2019-03-06T02:26:51.624Z,2.13
2019-03-06T02:29:20.529Z,2.50
2019-03-06T02:31:49.441Z,2.20
2019-03-06T02:34:18.347Z,2.23
2019-03-06T02:36:47.462Z,2.70
2019-03-06T02:39:16.383Z,1.87
2019-03-06T02:41:45.266Z,2.00
2019-03-06T02:44:14.114Z,2.00
2019-03-06T02:46:43.083Z,2.47
2019-03-06T02:49:12.013Z,3.27
2019-03-06T02:51:40.854Z,1.93
2019-03-06T02:54:09.761Z,3.80
2019-03-06T02:56:38.674Z,2.50
2019-03-06T02:59:25.089Z,2.30
2019-03-06T03:02:13.145Z,4.27
2019-03-06T03:04:57.331Z,6.80
2019-03-06T03:07:26.225Z,5.33
2019-03-06T03:09:55.135Z,5.50
2019-03-06T03:12:24.170Z,6.87
2019-03-06T03:14:53.165Z,7.77
2019-03-06T03:17:22.063Z,14.30
2019-03-06T03:19:51.178Z,11.77
2019-03-06T03:22:20.089Z,12.07
2019-03-06T03:24:49.059Z,19.33
2019-03-06T03:27:18.053Z,22.40
2019-03-06T03:29:47.034Z,21.67
2019-03-06T03:32:16.233Z,21.50
2019-03-06T03:34:45.130Z,23.67
2019-03-06T03:37:14.051Z,29.07
2019-03-06T03:39:42.877Z,32.43
2019-03-06T03:42:11.784Z,36.77
2019-03-06T03:44:40.610Z,38.50
2019-03-06T03:47:09.457Z,52.40
2019-03-06T03:49:38.311Z,44.63
2019-03-06T03:52:07.359Z,61.10
2019-03-06T03:54:36.281Z,66.27
2019-03-06T03:57:05.174Z,55.53
2019-03-06T03:59:34.150Z,62.67
2019-03-06T04:02:03.056Z,72.03
2019-03-06T04:04:31.887Z,72.60
2019-03-06T04:07:00.787Z,79.77
2019-03-06T04:09:29.783Z,87.53
2019-03-06T04:11:58.963Z,99.77
2019-03-06T04:14:27.947Z,97.03
2019-03-06T04:16:56.761Z,113.07
2019-03-06T04:19:25.755Z,112.73
2019-03-06T04:21:54.676Z,113.03
2019-03-06T04:24:23.654Z,125.13
2019-03-06T04:26:52.648Z,135.70
2019-03-06T04:29:21.622Z,123.40
2019-03-06T04:31:50.547Z,131.93
2019-03-06T04:34:19.373Z,136.03
2019-03-06T04:36:48.228Z,137.33
2019-03-06T04:39:17.061Z,146.07
2019-03-06T04:41:45.958Z,136.67
2019-03-06T04:44:14.809Z,142.27
2019-03-06T04:46:43.640Z,166.10
2019-03-06T04:49:12.505Z,154.47
2019-03-06T04:51:41.337Z,152.23
2019-03-06T04:54:10.190Z,162.43
2019-03-06T04:56:39.017Z,174.33
2019-03-06T04:59:07.929Z,173.87
2019-03-06T05:01:36.842Z,178.10
2019-03-06T05:04:05.766Z,165.90
2019-03-06T05:06:34.585Z,165.47
2019-03-06T05:09:04.585Z,171.20
2019-03-06T05:11:33.501Z,160.97
2019-03-06T05:14:02.393Z,196.40
2019-03-06T05:16:49.218Z,180.83
2019-03-06T05:19:18.068Z,174.83
2019-03-06T05:21:46.921Z,168.37
2019-03-06T05:24:15.825Z,172.97
2019-03-06T05:26:44.747Z,151.50
2019-03-06T05:29:13.572Z,188.30
2019-03-06T05:32:19.057Z,190.53
2019-03-06T05:34:47.887Z,171.40
2019-03-06T05:37:57.733Z,157.63
2019-03-06T05:40:26.623Z,173.47
2019-03-06T05:42:55.622Z,169.93
2019-03-06T05:45:24.603Z,173.73
2019-03-06T05:47:53.521Z,181.23
2019-03-06T05:50:22.504Z,180.17
2019-03-06T05:52:51.411Z,173.47
2019-03-06T05:55:20.393Z,154.13
2019-03-06T05:57:49.316Z,160.00
2019-03-06T06:00:20.202Z,158.27
2019-03-06T06:02:49.388Z,162.50
2019-03-06T06:05:18.437Z,177.83
2019-03-06T06:07:47.424Z,167.13
2019-03-06T06:10:16.429Z,163.70
2019-03-06T06:12:45.428Z,156.70
2019-03-06T06:15:14.442Z,149.43
2019-03-06T06:17:43.467Z,160.37
2019-03-06T06:20:12.593Z,137.90
2019-03-06T06:23:00.686Z,146.23
2019-03-06T06:25:31.171Z,146.57
2019-03-06T06:28:00.001Z,139.83
2019-03-06T06:30:28.944Z,140.80
2019-03-06T06:32:57.918Z,143.93
2019-03-06T06:35:27.043Z,123.80
2019-03-06T06:37:55.947Z,131.80
2019-03-06T06:40:24.958Z,135.40
2019-03-06T06:42:53.920Z,132.37
2019-03-06T06:45:22.903Z,132.70
2019-03-06T06:48:14.440Z,139.17
2019-03-06T06:51:01.748Z,139.33
2019-03-06T06:53:51.525Z,138.47
2019-03-06T06:56:53.149Z,112.40
2019-03-06T06:59:40.341Z,120.30
2019-03-06T07:02:45.665Z,122.40
2019-03-06T07:05:39.593Z,112.43
2019-03-06T07:08:26.317Z,111.87
2019-03-06T07:11:17.407Z,104.43
2019-03-06T07:13:53.103Z,107.10
2019-03-06T07:16:44.047Z,106.60
2019-03-06T07:19:23.246Z,108.70
2019-03-06T07:22:14.277Z,112.13
2019-03-06T07:25:02.229Z,104.90
2019-03-06T07:27:48.852Z,111.23
2019-03-06T07:30:44.892Z,98.20
2019-03-06T07:33:38.609Z,93.13
2019-03-06T07:36:29.892Z,101.03
2019-03-06T07:39:17.898Z,96.63
2019-03-06T07:42:06.149Z,84.90
2019-03-06T07:44:54.124Z,91.47
2019-03-06T07:47:48.105Z,88.07
2019-03-06T07:50:34.968Z,82.53
2019-03-06T07:53:59.910Z,88.60
2019-03-06T07:56:35.309Z,87.40
2019-03-06T07:59:04.381Z,84.70
2019-03-06T08:01:39.149Z,79.40
2019-03-06T08:04:10.075Z,87.77
2019-03-06T08:06:40.748Z,76.50
2019-03-06T08:09:11.620Z,85.00
2019-03-06T08:11:47.636Z,77.33
2019-03-06T08:14:34.070Z,75.00
2019-03-06T08:17:24.699Z,86.20
2019-03-06T08:20:24.466Z,70.47
2019-03-06T08:23:15.373Z,73.50
2019-03-06T08:25:48.054Z,71.00
2019-03-06T08:28:17.033Z,66.03
2019-03-06T08:31:09.199Z,67.10
2019-03-06T08:33:38.113Z,71.53
2019-03-06T08:36:07.088Z,70.53
2019-03-06T08:38:35.934Z,64.83
2019-03-06T08:41:06.465Z,59.00
2019-03-06T08:43:35.529Z,58.80
2019-03-06T08:46:29.486Z,63.37
2019-03-06T08:49:23.529Z,64.17
2019-03-06T08:51:57.820Z,56.50
2019-03-06T08:54:34.639Z,62.50
2019-03-06T08:57:14.626Z,53.20
2019-03-06T09:00:14.573Z,61.33
2019-03-06T09:02:54.945Z,51.63
2019-03-06T09:05:40.871Z,50.60
2019-03-06T09:08:28.114Z,53.50
2019-03-06T09:11:19.117Z,61.17
2019-03-06T09:14:05.375Z,54.03
2019-03-06T09:16:39.339Z,51.50
2019-03-06T09:19:26.205Z,48.63
2019-03-06T09:22:04.053Z,52.50
2019-03-06T09:24:57.950Z,51.13
2019-03-06T09:27:40.509Z,45.53
2019-03-06T09:30:38.929Z,42.37
2019-03-06T09:33:39.353Z,40.90
2019-03-06T09:36:31.984Z,45.47
2019-03-06T09:39:21.861Z,47.77
2019-03-06T09:42:08.353Z,39.30
2019-03-06T09:44:55.266Z,40.00
2019-03-06T09:47:30.825Z,43.60
2019-03-06T09:50:11.773Z,37.57
2019-03-06T09:52:58.527Z,40.50
2019-03-06T09:55:55.502Z,37.83
2019-03-06T09:58:41.344Z,37.47
2019-03-06T10:01:38.389Z,42.57
2019-03-06T10:04:35.349Z,51.40
2019-03-06T10:07:35.721Z,165.73
2019-03-06T10:10:33.977Z,140.13
2019-03-06T10:13:09.160Z,163.80
2019-03-06T10:16:03.369Z,161.17
2019-03-06T10:18:54.674Z,155.17
2019-03-06T10:21:25.557Z,153.60
2019-03-06T10:23:54.372Z,169.10
2019-03-06T10:26:23.553Z,196.13
2019-03-06T10:28:52.528Z,157.80
2019-03-06T10:31:21.546Z,179.53
2019-03-06T10:33:50.570Z,162.27
2019-03-06T10:36:19.567Z,191.73
2019-03-06T10:38:48.653Z,158.70
2019-03-06T10:41:17.809Z,141.23
2019-03-06T10:43:49.639Z,159.53
2019-03-06T10:46:17.548Z,170.47
2019-03-06T10:48:48.338Z,138.30
2019-03-06T10:51:17.335Z,141.17
2019-03-06T10:53:46.313Z,134.63
2019-03-06T10:56:15.397Z,137.40
2019-03-06T10:58:44.448Z,127.23
2019-03-06T11:01:13.743Z,125.53
2019-03-06T11:03:55.644Z,123.23
2019-03-06T11:06:24.634Z,136.63
2019-03-06T11:08:53.690Z,117.37
2019-03-06T11:11:22.761Z,114.27
2019-03-06T11:13:51.724Z,130.57
2019-03-06T11:16:20.661Z,105.40
2019-03-06T11:18:49.805Z,124.50
2019-03-06T11:21:19.320Z,99.57
2019-03-06T11:23:48.402Z,121.27
2019-03-06T11:26:17.410Z,103.10
2019-03-06T11:28:46.392Z,101.67
2019-03-06T11:31:15.790Z,98.07
2019-03-06T11:33:44.975Z,87.30
2019-03-06T11:36:14.081Z,111.23
2019-03-06T11:38:44.343Z,92.17
2019-03-06T11:41:13.745Z,90.87
2019-03-06T11:43:42.749Z,94.20
2019-03-06T11:46:13.210Z,84.97
2019-03-06T11:48:42.188Z,92.23
2019-03-06T11:51:11.213Z,76.97
2019-03-06T11:53:40.189Z,79.70
2019-03-06T11:56:09.585Z,79.10
2019-03-06T11:58:38.973Z,83.40
2019-03-06T12:01:13.781Z,76.23
2019-03-06T12:03:42.783Z,82.47
2019-03-06T12:06:11.849Z,54.17
2019-03-06T12:08:45.585Z,63.63
2019-03-06T12:11:11.613Z,66.70
2019-03-06T12:13:40.830Z,49.40
2019-03-06T12:16:11.174Z,47.33
2019-03-06T12:18:40.085Z,53.07
2019-03-06T12:21:09.178Z,50.60
2019-03-06T12:23:38.104Z,48.80
2019-03-06T12:26:07.205Z,47.03
2019-03-06T12:28:36.211Z,56.43
2019-03-06T12:31:07.654Z,32.27
2019-03-06T12:33:36.665Z,35.73
2019-03-06T12:36:05.794Z,43.33
2019-03-06T12:38:34.803Z,40.10
2019-03-06T12:41:04.299Z,32.77
2019-03-06T12:43:33.733Z,40.57
2019-03-06T12:46:22.402Z,37.20
2019-03-06T12:48:45.037Z,36.47
2019-03-06T12:51:14.072Z,44.83
2019-03-06T12:53:43.370Z,39.70
2019-03-06T12:56:12.390Z,60.87
2019-03-06T12:58:41.334Z,86.20
2019-03-06T13:01:10.258Z,132.63
2019-03-06T13:03:39.212Z,108.97
2019-03-06T13:06:08.181Z,91.73
2019-03-06T13:08:37.454Z,111.23
2019-03-06T13:11:06.465Z,98.40
2019-03-06T13:13:35.934Z,106.40
2019-03-06T13:16:07.328Z,91.23
2019-03-06T13:18:36.313Z,93.17
2019-03-06T13:21:07.654Z,86.10
2019-03-06T13:23:36.858Z,69.07
2019-03-06T13:26:10.395Z,68.33
2019-03-06T13:28:36.678Z,86.40
2019-03-06T13:31:05.851Z,67.13
2019-03-06T13:33:45.817Z,51.77
2019-03-06T13:36:14.746Z,62.73
2019-03-06T13:38:43.758Z,48.47
2019-03-06T13:41:12.766Z,69.10
2019-03-06T13:43:41.631Z,42.07
2019-03-06T13:46:10.662Z,40.03
2019-03-06T13:48:39.669Z,49.57
2019-03-06T13:51:08.672Z,51.10
2019-03-06T13:53:37.665Z,51.00
2019-03-06T13:56:07.220Z,43.20
2019-03-06T13:58:36.222Z,40.80
2019-03-06T14:01:07.907Z,37.77
2019-03-06T14:03:36.892Z,44.20
2019-03-06T14:06:05.951Z,41.10
2019-03-06T14:08:35.029Z,33.40
2019-03-06T14:11:04.026Z,43.03
2019-03-06T14:13:33.041Z,33.17
2019-03-06T14:16:02.038Z,35.23
2019-03-06T14:18:31.029Z,37.13
2019-03-06T14:21:00.104Z,30.03
2019-03-06T14:23:34.965Z,38.37
2019-03-06T14:25:59.978Z,28.57
2019-03-06T14:28:28.901Z,32.47
2019-03-06T14:30:57.906Z,25.60
2019-03-06T14:33:26.975Z,33.80
2019-03-06T14:35:55.955Z,33.50
2019-03-06T14:38:24.953Z,30.77
2019-03-06T14:40:54.057Z,36.37
2019-03-06T14:43:22.985Z,27.90
2019-03-06T14:45:52.009Z,38.83
2019-03-06T14:48:21.009Z,29.47
2019-03-06T14:50:49.887Z,24.67
2019-03-06T14:53:18.894Z,34.00
2019-03-06T14:55:47.897Z,30.60
2019-03-06T14:58:19.185Z,26.87
2019-03-06T15:00:48.117Z,30.80
2019-03-06T15:03:17.513Z,29.20
2019-03-06T15:05:47.693Z,20.30
2019-03-06T15:08:16.619Z,20.27
2019-03-06T15:10:45.552Z,27.93
2019-03-06T15:13:15.898Z,25.70
2019-03-06T15:15:44.966Z,25.17
2019-03-06T15:18:14.501Z,20.03
2019-03-06T15:20:43.565Z,23.73
2019-03-06T15:23:12.867Z,20.10
2019-03-06T15:25:41.807Z,21.17
2019-03-06T15:28:10.808Z,24.80
2019-03-06T15:30:40.781Z,24.93
2019-03-06T15:33:09.849Z,20.27
2019-03-06T15:35:38.775Z,19.50
2019-03-06T15:38:09.382Z,25.90
2019-03-06T15:40:40.525Z,26.83
2019-03-06T15:43:13.243Z,19.73
2019-03-06T15:45:42.478Z,18.30
2019-03-06T15:48:13.709Z,21.37
2019-03-06T15:50:42.701Z,19.80
2019-03-06T15:53:14.228Z,16.27
2019-03-06T15:55:43.255Z,17.10
2019-03-06T15:58:12.443Z,21.07
2019-03-06T16:00:46.156Z,18.50
2019-03-06T16:03:13.149Z,19.93
2019-03-06T16:05:42.692Z,24.00
2019-03-06T16:08:14.181Z,18.03
2019-03-06T16:10:43.357Z,19.43
2019-03-06T16:13:12.347Z,20.60
2019-03-06T16:15:41.346Z,17.13
2019-03-06T16:18:10.683Z,16.40
2019-03-06T16:20:41.293Z,13.57
2019-03-06T16:23:10.357Z,17.53
2019-03-06T16:25:40.681Z,13.93
2019-03-06T16:28:09.667Z,14.50
2019-03-06T16:30:39.242Z,18.57
2019-03-06T16:33:08.224Z,17.60
2019-03-06T16:35:37.808Z,12.43
2019-03-06T16:38:06.987Z,11.33
2019-03-06T16:40:36.084Z,13.30
2019-03-06T16:43:05.344Z,19.50
2019-03-06T16:45:34.334Z,15.50
2019-03-06T16:48:03.337Z,16.03
2019-03-06T16:50:32.334Z,20.47
2019-03-06T16:53:01.421Z,11.97
2019-03-06T16:55:30.468Z,14.50
2019-03-06T16:57:59.952Z,13.00
2019-03-06T17:00:30.890Z,13.50
2019-03-06T17:03:00.611Z,16.60
2019-03-06T17:05:30.108Z,14.47
2019-03-06T17:07:59.522Z,17.63
2019-03-06T17:10:28.719Z,14.90
2019-03-06T17:12:57.898Z,13.47
2019-03-06T17:15:27.976Z,13.40
2019-03-06T17:17:56.948Z,17.80
2019-03-06T17:20:27.210Z,19.13
2019-03-06T17:22:56.406Z,14.90
2019-03-06T17:25:28.041Z,10.60
2019-03-06T17:27:56.197Z,18.13
2019-03-06T17:30:25.666Z,14.80
2019-03-06T17:32:59.334Z,15.37
2019-03-06T17:35:28.831Z,11.90
2019-03-06T17:37:57.980Z,13.60
2019-03-06T17:40:27.340Z,11.20
2019-03-06T17:42:56.432Z,12.23
2019-03-06T17:45:25.622Z,11.20
2019-03-06T17:47:54.985Z,12.00
2019-03-06T17:50:24.480Z,13.87
2019-03-06T17:52:53.809Z,15.40
2019-03-06T17:55:22.814Z,12.90
2019-03-06T17:57:51.805Z,19.60
2019-03-06T18:00:27.765Z,17.00
2019-03-06T18:02:57.975Z,13.60
2019-03-06T18:05:27.124Z,15.00
2019-03-06T18:07:58.425Z,14.20
2019-03-06T18:10:27.673Z,10.70
2019-03-06T18:12:56.599Z,11.60
2019-03-06T18:15:25.944Z,14.70
2019-03-06T18:17:54.943Z,15.70
2019-03-06T18:20:23.769Z,14.10
2019-03-06T18:22:52.793Z,13.73
2019-03-06T18:25:21.830Z,12.40
2019-03-06T18:27:50.853Z,13.50
2019-03-06T18:30:19.957Z,10.90
2019-03-06T18:32:49.150Z,13.80
2019-03-06T18:35:18.266Z,13.40
2019-03-06T18:37:47.565Z,11.30
2019-03-06T18:40:17.407Z,9.63
2019-03-06T18:42:46.545Z,13.33
2019-03-06T18:45:16.398Z,10.90
2019-03-06T18:47:45.388Z,7.93
2019-03-06T18:50:16.645Z,9.30
2019-03-06T18:52:45.669Z,14.30
2019-03-06T18:55:15.334Z,10.43
2019-03-06T18:57:44.313Z,11.13
2019-03-06T19:00:16.521Z,9.73
2019-03-06T19:02:45.500Z,9.80
2019-03-06T19:05:14.710Z,11.47
2019-03-06T19:07:44.486Z,9.83
2019-03-06T19:10:15.880Z,11.93
2019-03-06T19:12:44.795Z,8.07
2019-03-06T19:15:16.282Z,8.70
2019-03-06T19:17:46.007Z,11.23
2019-03-06T19:20:18.735Z,7.50
2019-03-06T19:22:49.093Z,7.50
2019-03-06T19:25:18.831Z,8.33
2019-03-06T19:27:49.523Z,8.30
2019-03-06T19:30:21.330Z,10.53
2019-03-06T19:32:51.260Z,6.73
2019-03-06T19:35:20.989Z,7.70
2019-03-06T19:37:51.290Z,9.83
2019-03-06T19:40:20.945Z,10.57
2019-03-06T19:42:50.330Z,15.83
2019-03-06T19:45:19.558Z,11.10
2019-03-06T19:47:50.478Z,10.07
2019-03-06T19:50:20.754Z,9.30
2019-03-06T19:52:49.782Z,11.23
2019-03-06T19:55:19.289Z,10.77
2019-03-06T19:57:57.561Z,9.07
2019-03-06T20:00:29.480Z,9.30
2019-03-06T20:02:59.615Z,8.23
2019-03-06T20:05:34.820Z,11.00
2019-03-06T20:08:08.606Z,7.40
2019-03-06T20:10:38.365Z,7.23
2019-03-06T20:13:08.809Z,9.03
2019-03-06T20:15:38.457Z,8.70
2019-03-06T20:18:07.542Z,10.57
2019-03-06T20:20:37.102Z,7.03
2019-03-06T20:23:06.086Z,9.23
2019-03-06T20:25:37.090Z,6.20
2019-03-06T20:28:06.005Z,7.00
2019-03-06T20:30:35.553Z,8.30
2019-03-06T20:33:05.188Z,10.13
2019-03-06T20:35:34.202Z,7.97
2019-03-06T20:38:03.473Z,12.67
2019-03-06T20:40:32.488Z,6.60
2019-03-06T20:43:01.487Z,6.80
2019-03-06T20:45:30.482Z,8.80
2019-03-06T20:47:59.465Z,10.73
2019-03-06T20:50:28.397Z,6.80
2019-03-06T20:52:57.660Z,9.20
2019-03-06T20:55:26.661Z,6.40
2019-03-06T20:57:55.841Z,9.40
2019-03-06T21:00:25.323Z,5.70
2019-03-06T21:02:54.384Z,7.73
2019-03-06T21:05:23.436Z,8.40
2019-03-06T21:07:52.522Z,6.73
2019-03-06T21:10:21.598Z,7.60
2019-03-06T21:12:50.589Z,7.00
2019-03-06T21:15:19.617Z,6.70
2019-03-06T21:17:50.944Z,6.57
2019-03-06T21:20:19.851Z,6.43
2019-03-06T21:22:48.858Z,7.80
2019-03-06T21:25:18.133Z,6.67
2019-03-06T21:27:47.197Z,6.67
2019-03-06T21:30:39.138Z,6.10
2019-03-06T21:33:08.041Z,5.53
2019-03-06T21:35:37.033Z,8.47
2019-03-06T21:38:06.019Z,5.23
2019-03-06T21:40:35.016Z,6.67
2019-03-06T21:43:04.006Z,8.03
2019-03-06T21:45:33.862Z,5.90
2019-03-06T21:48:03.025Z,7.10
2019-03-06T21:50:32.027Z,5.97
2019-03-06T21:53:00.998Z,6.50
2019-03-06T21:55:30.286Z,6.63
2019-03-06T21:57:59.566Z,5.97
2019-03-06T22:00:28.573Z,8.50
2019-03-06T22:02:57.590Z,5.03
2019-03-06T22:05:26.515Z,5.10
2019-03-06T22:07:55.565Z,5.80
2019-03-06T22:10:24.770Z,5.30
2019-03-06T22:12:53.661Z,5.00
2019-03-06T22:15:22.958Z,8.73
2019-03-06T22:17:51.936Z,10.80
2019-03-06T22:20:20.926Z,4.30
2019-03-06T22:22:50.018Z,6.17
2019-03-06T22:25:19.393Z,4.40
2019-03-06T22:27:48.454Z,5.47
2019-03-06T22:30:18.211Z,5.80
2019-03-06T22:32:47.557Z,4.77
2019-03-06T22:35:16.549Z,3.13
2019-03-06T22:37:45.505Z,6.70
2019-03-06T22:40:15.404Z,6.13
2019-03-06T22:42:44.398Z,3.90
2019-03-06T22:45:14.399Z,4.70
2019-03-06T22:47:43.429Z,3.57
2019-03-06T22:50:13.241Z,5.50
2019-03-06T22:52:42.360Z,5.10
2019-03-06T22:55:13.102Z,4.37
2019-03-06T22:57:42.054Z,7.03
2019-03-06T23:00:28.812Z,6.90
2019-03-06T23:02:57.922Z,4.30
2019-03-06T23:05:27.227Z,4.80
2019-03-06T23:07:56.230Z,5.37
2019-03-06T23:10:25.211Z,5.00
2019-03-06T23:12:54.341Z,4.23
2019-03-06T23:15:23.323Z,5.17
2019-03-06T23:17:52.253Z,5.33
2019-03-06T23:20:21.245Z,4.20
2019-03-06T23:22:50.080Z,4.30
2019-03-06T23:25:20.057Z,3.83
2019-03-06T23:27:48.971Z,3.43
2019-03-06T23:30:17.978Z,4.40
2019-03-06T23:32:47.158Z,3.57
2019-03-06T23:35:16.101Z,5.13
2019-03-06T23:37:45.105Z,5.17
2019-03-06T23:40:14.093Z,6.13
2019-03-06T23:42:43.074Z,4.37
2019-03-06T23:45:12.462Z,4.43
2019-03-06T23:47:42.342Z,8.80
2019-03-06T23:50:11.488Z,3.70
2019-03-06T23:52:58.391Z,5.80
2019-03-06T23:55:29.105Z,6.13
2019-03-06T23:58:01.545Z,4.93
